sensor_id;sensor_type;location;lat;lon;timestamp;pressure;altitude;pressure_sealevel;temperature;humidity
19600;BME280;9947;57.722;12.012;2022-08-20T00:02:21;100615.66;;;18.35;67.46
19600;BME280;9947;57.722;12.012;2022-08-20T00:04:48;100621.13;;;18.35;67.13
19600;BME280;9947;57.722;12.012;2022-08-20T00:07:14;100620.63;;;18.32;66.56
19600;BME280;9947;57.722;12.012;2022-08-20T00:09:42;100617.22;;;18.30;66.18
19600;BME280;9947;57.722;12.012;2022-08-20T00:12:10;100624.91;;;18.34;64.83
19600;BME280;9947;57.722;12.012;2022-08-20T00:14:38;100616.34;;;18.29;64.88
19600;BME280;9947;57.722;12.012;2022-08-20T00:17:05;100616.69;;;18.26;64.49
19600;BME280;9947;57.722;12.012;2022-08-20T00:19:33;100624.22;;;18.24;63.37
19600;BME280;9947;57.722;12.012;2022-08-20T00:22:00;100617.22;;;18.22;63.02
19600;BME280;9947;57.722;12.012;2022-08-20T00:24:27;100618.22;;;18.21;63.18
19600;BME280;9947;57.722;12.012;2022-08-20T00:26:54;100606.25;;;18.13;61.86
19600;BME280;9947;57.722;12.012;2022-08-20T00:29:21;100608.63;;;18.08;60.58
19600;BME280;9947;57.722;12.012;2022-08-20T00:31:48;100612.41;;;18.07;59.74
19600;BME280;9947;57.722;12.012;2022-08-20T00:34:15;100611.72;;;17.97;60.08
19600;BME280;9947;57.722;12.012;2022-08-20T00:36:43;100624.66;;;17.95;59.92
19600;BME280;9947;57.722;12.012;2022-08-20T00:39:11;100624.34;;;17.98;59.99
19600;BME280;9947;57.722;12.012;2022-08-20T00:41:38;100636.63;;;17.94;59.95
19600;BME280;9947;57.722;12.012;2022-08-20T00:44:09;100633.38;;;17.91;59.82
19600;BME280;9947;57.722;12.012;2022-08-20T00:46:37;100638.03;;;17.98;58.82
19600;BME280;9947;57.722;12.012;2022-08-20T00:49:07;100649.66;;;18.00;58.53
19600;BME280;9947;57.722;12.012;2022-08-20T00:51:36;100657.34;;;18.05;58.03
19600;BME280;9947;57.722;12.012;2022-08-20T00:54:15;100657.88;;;18.08;57.68
19600;BME280;9947;57.722;12.012;2022-08-20T00:56:45;100654.63;;;18.13;56.96
19600;BME280;9947;57.722;12.012;2022-08-20T00:59:27;100663.53;;;18.15;57.37
19600;BME280;9947;57.722;12.012;2022-08-20T01:01:55;100652.06;;;18.11;57.64
19600;BME280;9947;57.722;12.012;2022-08-20T01:04:26;100651.56;;;18.16;57.89
19600;BME280;9947;57.722;12.012;2022-08-20T01:06:53;100647.78;;;18.17;57.56
19600;BME280;9947;57.722;12.012;2022-08-20T01:09:22;100647.44;;;18.20;57.53
19600;BME280;9947;57.722;12.012;2022-08-20T01:11:49;100643.34;;;18.16;57.54
19600;BME280;9947;57.722;12.012;2022-08-20T01:14:16;100647.28;;;18.13;57.29
19600;BME280;9947;57.722;12.012;2022-08-20T01:16:55;100643.69;;;18.13;57.06
19600;BME280;9947;57.722;12.012;2022-08-20T01:19:27;100643.50;;;18.14;57.22
19600;BME280;9947;57.722;12.012;2022-08-20T01:21:56;100636.84;;;18.17;57.88
19600;BME280;9947;57.722;12.012;2022-08-20T01:24:31;100639.25;;;18.12;58.66
19600;BME280;9947;57.722;12.012;2022-08-20T01:27:02;100641.47;;;18.08;59.21
19600;BME280;9947;57.722;12.012;2022-08-20T01:29:34;100637.69;;;18.17;59.41
19600;BME280;9947;57.722;12.012;2022-08-20T01:32:03;100644.53;;;18.13;60.55
19600;BME280;9947;57.722;12.012;2022-08-20T01:34:30;100643.50;;;18.14;59.71
19600;BME280;9947;57.722;12.012;2022-08-20T01:36:57;100643.19;;;18.17;59.63
19600;BME280;9947;57.722;12.012;2022-08-20T01:39:28;100638.22;;;18.13;61.80
19600;BME280;9947;57.722;12.012;2022-08-20T01:42:03;100628.28;;;18.12;61.38
19600;BME280;9947;57.722;12.012;2022-08-20T01:44:33;100625.91;;;18.17;60.89
19600;BME280;9947;57.722;12.012;2022-08-20T01:47:10;100634.28;;;18.15;61.70
19600;BME280;9947;57.722;12.012;2022-08-20T01:49:40;100625.91;;;18.17;64.38
19600;BME280;9947;57.722;12.012;2022-08-20T01:52:12;100627.63;;;18.18;65.49
19600;BME280;9947;57.722;12.012;2022-08-20T01:54:40;100625.38;;;18.13;65.78
19600;BME280;9947;57.722;12.012;2022-08-20T01:57:13;100621.47;;;18.16;67.13
19600;BME280;9947;57.722;12.012;2022-08-20T01:59:40;100617.88;;;18.07;68.12
19600;BME280;9947;57.722;12.012;2022-08-20T02:02:09;100619.91;;;18.05;67.81
19600;BME280;9947;57.722;12.012;2022-08-20T02:04:37;100608.97;;;18.05;66.81
19600;BME280;9947;57.722;12.012;2022-08-20T02:07:07;100603.00;;;18.02;67.68
19600;BME280;9947;57.722;12.012;2022-08-20T02:09:38;100603.50;;;17.97;66.95
19600;BME280;9947;57.722;12.012;2022-08-20T02:12:08;100598.22;;;17.96;66.23
19600;BME280;9947;57.722;12.012;2022-08-20T02:14:38;100597.81;;;17.91;65.52
19600;BME280;9947;57.722;12.012;2022-08-20T02:17:07;100592.88;;;17.86;64.53
19600;BME280;9947;57.722;12.012;2022-08-20T02:19:37;100600.38;;;17.84;63.81
19600;BME280;9947;57.722;12.012;2022-08-20T02:22:13;100587.91;;;17.81;62.90
19600;BME280;9947;57.722;12.012;2022-08-20T02:24:42;100587.56;;;17.76;62.31
19600;BME280;9947;57.722;12.012;2022-08-20T02:27:09;100588.09;;;17.80;61.72
19600;BME280;9947;57.722;12.012;2022-08-20T02:29:37;100583.38;;;17.64;60.89
19600;BME280;9947;57.722;12.012;2022-08-20T02:32:04;100583.22;;;17.57;59.89
19600;BME280;9947;57.722;12.012;2022-08-20T02:34:31;100581.84;;;17.53;58.91
19600;BME280;9947;57.722;12.012;2022-08-20T02:37:00;100581.44;;;17.40;58.13
19600;BME280;9947;57.722;12.012;2022-08-20T02:39:27;100585.69;;;17.35;57.66
19600;BME280;9947;57.722;12.012;2022-08-20T02:41:54;100585.16;;;17.31;57.55
19600;BME280;9947;57.722;12.012;2022-08-20T02:44:20;100584.47;;;17.29;57.06
19600;BME280;9947;57.722;12.012;2022-08-20T02:46:49;100585.13;;;17.23;57.04
19600;BME280;9947;57.722;12.012;2022-08-20T02:49:16;100591.78;;;17.20;56.69
19600;BME280;9947;57.722;12.012;2022-08-20T02:51:43;100587.97;;;17.13;56.55
19600;BME280;9947;57.722;12.012;2022-08-20T02:54:11;100590.19;;;17.10;56.36
19600;BME280;9947;57.722;12.012;2022-08-20T02:56:39;100596.31;;;17.04;56.08
19600;BME280;9947;57.722;12.012;2022-08-20T02:59:05;100591.69;;;17.04;55.84
19600;BME280;9947;57.722;12.012;2022-08-20T03:01:32;100593.38;;;16.97;55.87
19600;BME280;9947;57.722;12.012;2022-08-20T03:04:02;100592.16;;;16.91;55.64
19600;BME280;9947;57.722;12.012;2022-08-20T03:06:29;100585.13;;;16.89;55.79
19600;BME280;9947;57.722;12.012;2022-08-20T03:08:56;100584.91;;;16.82;56.16
19600;BME280;9947;57.722;12.012;2022-08-20T03:11:23;100596.84;;;16.81;55.86
19600;BME280;9947;57.722;12.012;2022-08-20T03:13:50;100592.41;;;16.80;56.27
19600;BME280;9947;57.722;12.012;2022-08-20T03:16:17;100603.34;;;16.80;56.32
19600;BME280;9947;57.722;12.012;2022-08-20T03:18:45;100603.81;;;16.76;56.47
19600;BME280;9947;57.722;12.012;2022-08-20T03:21:14;100608.22;;;16.69;56.90
19600;BME280;9947;57.722;12.012;2022-08-20T03:23:41;100604.00;;;16.74;56.88
19600;BME280;9947;57.722;12.012;2022-08-20T03:26:11;100614.22;;;16.72;56.93
19600;BME280;9947;57.722;12.012;2022-08-20T03:28:39;100618.97;;;16.70;57.15
19600;BME280;9947;57.722;12.012;2022-08-20T03:31:06;100622.03;;;16.67;57.31
19600;BME280;9947;57.722;12.012;2022-08-20T03:33:34;100623.75;;;16.68;57.36
19600;BME280;9947;57.722;12.012;2022-08-20T03:36:01;100629.47;;;16.65;57.66
19600;BME280;9947;57.722;12.012;2022-08-20T03:38:31;100633.81;;;16.68;57.89
19600;BME280;9947;57.722;12.012;2022-08-20T03:40:58;100637.81;;;16.63;58.07
19600;BME280;9947;57.722;12.012;2022-08-20T03:43:25;100644.28;;;16.62;57.99
19600;BME280;9947;57.722;12.012;2022-08-20T03:45:51;100649.44;;;16.65;58.30
19600;BME280;9947;57.722;12.012;2022-08-20T03:48:19;100655.81;;;16.66;58.24
19600;BME280;9947;57.722;12.012;2022-08-20T03:50:47;100650.91;;;16.60;58.19
19600;BME280;9947;57.722;12.012;2022-08-20T03:53:16;100660.81;;;16.61;58.04
19600;BME280;9947;57.722;12.012;2022-08-20T03:55:47;100661.50;;;16.63;57.91
19600;BME280;9947;57.722;12.012;2022-08-20T03:58:14;100651.63;;;16.62;57.76
19600;BME280;9947;57.722;12.012;2022-08-20T04:00:46;100657.78;;;16.64;57.54
19600;BME280;9947;57.722;12.012;2022-08-20T04:03:14;100659.38;;;16.67;57.66
19600;BME280;9947;57.722;12.012;2022-08-20T04:05:42;100657.50;;;16.67;57.49
19600;BME280;9947;57.722;12.012;2022-08-20T04:08:11;100663.56;;;16.79;57.27
19600;BME280;9947;57.722;12.012;2022-08-20T04:10:39;100673.47;;;16.80;57.20
19600;BME280;9947;57.722;12.012;2022-08-20T04:13:07;100678.75;;;16.81;56.92
19600;BME280;9947;57.722;12.012;2022-08-20T04:15:34;100672.13;;;16.84;56.92
19600;BME280;9947;57.722;12.012;2022-08-20T04:18:04;100683.19;;;16.82;56.94
19600;BME280;9947;57.722;12.012;2022-08-20T04:20:33;100686.47;;;16.86;56.83
19600;BME280;9947;57.722;12.012;2022-08-20T04:23:00;100678.97;;;16.88;56.64
19600;BME280;9947;57.722;12.012;2022-08-20T04:25:28;100676.06;;;16.89;56.54
19600;BME280;9947;57.722;12.012;2022-08-20T04:27:56;100687.44;;;17.03;56.03
19600;BME280;9947;57.722;12.012;2022-08-20T04:30:25;100696.88;;;17.08;55.77
19600;BME280;9947;57.722;12.012;2022-08-20T04:32:52;100694.19;;;17.16;55.34
19600;BME280;9947;57.722;12.012;2022-08-20T04:35:20;100695.09;;;17.25;55.29
19600;BME280;9947;57.722;12.012;2022-08-20T04:37:48;100687.28;;;17.30;55.06
19600;BME280;9947;57.722;12.012;2022-08-20T04:40:17;100691.22;;;17.36;55.34
19600;BME280;9947;57.722;12.012;2022-08-20T04:43:02;100690.72;;;17.40;56.09
19600;BME280;9947;57.722;12.012;2022-08-20T04:45:30;100690.81;;;17.48;56.86
19600;BME280;9947;57.722;12.012;2022-08-20T04:48:00;100688.22;;;17.47;58.11
19600;BME280;9947;57.722;12.012;2022-08-20T04:50:30;100683.81;;;17.54;57.47
19600;BME280;9947;57.722;12.012;2022-08-20T04:53:00;100678.34;;;17.54;58.47
19600;BME280;9947;57.722;12.012;2022-08-20T04:55:27;100682.94;;;17.45;63.08
19600;BME280;9947;57.722;12.012;2022-08-20T04:57:54;100679.91;;;17.56;60.88
19600;BME280;9947;57.722;12.012;2022-08-20T05:00:22;100680.22;;;17.53;62.68
19600;BME280;9947;57.722;12.012;2022-08-20T05:02:50;100681.59;;;17.57;62.04
19600;BME280;9947;57.722;12.012;2022-08-20T05:05:17;100684.66;;;17.46;63.90
19600;BME280;9947;57.722;12.012;2022-08-20T05:07:45;100690.47;;;17.51;63.00
19600;BME280;9947;57.722;12.012;2022-08-20T05:10:14;100690.66;;;17.58;63.48
19600;BME280;9947;57.722;12.012;2022-08-20T05:12:41;100693.56;;;17.56;64.74
19600;BME280;9947;57.722;12.012;2022-08-20T05:15:09;100685.88;;;17.60;66.00
19600;BME280;9947;57.722;12.012;2022-08-20T05:17:37;100671.56;;;17.66;72.44
19600;BME280;9947;57.722;12.012;2022-08-20T05:20:08;100680.34;;;17.70;79.23
19600;BME280;9947;57.722;12.012;2022-08-20T05:22:36;100673.44;;;17.66;84.58
19600;BME280;9947;57.722;12.012;2022-08-20T05:25:03;100675.56;;;17.72;86.02
19600;BME280;9947;57.722;12.012;2022-08-20T05:27:31;100674.03;;;17.77;88.35
19600;BME280;9947;57.722;12.012;2022-08-20T05:29:59;100680.03;;;17.89;87.07
19600;BME280;9947;57.722;12.012;2022-08-20T05:32:26;100683.50;;;17.99;89.60
19600;BME280;9947;57.722;12.012;2022-08-20T05:34:54;100678.75;;;18.17;89.37
19600;BME280;9947;57.722;12.012;2022-08-20T05:37:23;100675.19;;;18.41;90.08
19600;BME280;9947;57.722;12.012;2022-08-20T05:39:50;100673.38;;;18.74;92.07
19600;BME280;9947;57.722;12.012;2022-08-20T05:42:16;100686.66;;;19.10;93.86
19600;BME280;9947;57.722;12.012;2022-08-20T05:44:43;100690.50;;;19.48;96.17
19600;BME280;9947;57.722;12.012;2022-08-20T05:47:11;100688.00;;;19.86;96.06
19600;BME280;9947;57.722;12.012;2022-08-20T05:49:38;100689.31;;;20.21;97.56
19600;BME280;9947;57.722;12.012;2022-08-20T05:52:06;100680.16;;;20.59;97.80
19600;BME280;9947;57.722;12.012;2022-08-20T05:54:34;100686.50;;;20.83;98.38
19600;BME280;9947;57.722;12.012;2022-08-20T05:57:02;100685.56;;;20.90;97.96
19600;BME280;9947;57.722;12.012;2022-08-20T05:59:29;100694.88;;;21.04;98.13
19600;BME280;9947;57.722;12.012;2022-08-20T06:01:59;100688.69;;;21.02;98.22
19600;BME280;9947;57.722;12.012;2022-08-20T06:04:26;100694.41;;;20.78;98.08
19600;BME280;9947;57.722;12.012;2022-08-20T06:06:57;100683.63;;;20.53;97.65
19600;BME280;9947;57.722;12.012;2022-08-20T06:09:28;100690.75;;;20.40;97.21
19600;BME280;9947;57.722;12.012;2022-08-20T06:11:57;100690.59;;;20.10;97.01
19600;BME280;9947;57.722;12.012;2022-08-20T06:14:24;100699.50;;;19.73;96.38
19600;BME280;9947;57.722;12.012;2022-08-20T06:16:51;100691.22;;;19.89;94.64
19600;BME280;9947;57.722;12.012;2022-08-20T06:19:18;100709.44;;;19.74;94.07
19600;BME280;9947;57.722;12.012;2022-08-20T06:21:44;100703.41;;;19.87;93.78
19600;BME280;9947;57.722;12.012;2022-08-20T06:24:11;100703.47;;;19.70;91.56
19600;BME280;9947;57.722;12.012;2022-08-20T06:26:38;100709.00;;;19.46;91.07
19600;BME280;9947;57.722;12.012;2022-08-20T06:29:06;100704.41;;;19.55;90.66
19600;BME280;9947;57.722;12.012;2022-08-20T06:31:33;100698.53;;;19.50;89.57
19600;BME280;9947;57.722;12.012;2022-08-20T06:34:04;100697.22;;;19.37;88.37
19600;BME280;9947;57.722;12.012;2022-08-20T06:36:31;100706.31;;;19.22;87.13
19600;BME280;9947;57.722;12.012;2022-08-20T06:38:58;100712.31;;;19.25;84.87
19600;BME280;9947;57.722;12.012;2022-08-20T06:41:25;100704.78;;;19.19;89.77
19600;BME280;9947;57.722;12.012;2022-08-20T06:43:52;100711.63;;;19.31;88.33
19600;BME280;9947;57.722;12.012;2022-08-20T06:46:20;100715.69;;;19.44;90.16
19600;BME280;9947;57.722;12.012;2022-08-20T06:48:48;100708.38;;;19.36;94.98
19600;BME280;9947;57.722;12.012;2022-08-20T06:51:15;100719.47;;;19.42;95.81
19600;BME280;9947;57.722;12.012;2022-08-20T06:53:42;100714.47;;;19.62;98.71
19600;BME280;9947;57.722;12.012;2022-08-20T06:56:09;100720.25;;;19.76;99.30
19600;BME280;9947;57.722;12.012;2022-08-20T06:58:35;100730.09;;;19.62;98.81
19600;BME280;9947;57.722;12.012;2022-08-20T07:01:02;100721.75;;;19.31;99.88
19600;BME280;9947;57.722;12.012;2022-08-20T07:03:30;100727.91;;;19.25;100.00
19600;BME280;9947;57.722;12.012;2022-08-20T07:05:57;100731.13;;;19.45;100.00
19600;BME280;9947;57.722;12.012;2022-08-20T07:08:26;100728.72;;;19.41;100.00
19600;BME280;9947;57.722;12.012;2022-08-20T07:10:53;100724.31;;;19.32;100.00
19600;BME280;9947;57.722;12.012;2022-08-20T07:13:20;100726.31;;;19.47;99.50
19600;BME280;9947;57.722;12.012;2022-08-20T07:15:46;100735.22;;;19.65;99.99
19600;BME280;9947;57.722;12.012;2022-08-20T07:18:14;100737.97;;;19.40;100.00
19600;BME280;9947;57.722;12.012;2022-08-20T07:20:42;100742.91;;;19.69;100.00
19600;BME280;9947;57.722;12.012;2022-08-20T07:23:09;100740.81;;;20.19;99.84
19600;BME280;9947;57.722;12.012;2022-08-20T07:25:37;100738.25;;;20.71;99.62
19600;BME280;9947;57.722;12.012;2022-08-20T07:28:08;100756.13;;;20.44;99.77
19600;BME280;9947;57.722;12.012;2022-08-20T07:30:37;100761.53;;;20.21;98.41
19600;BME280;9947;57.722;12.012;2022-08-20T07:33:33;100772.25;;;20.39;97.66
19600;BME280;9947;57.722;12.012;2022-08-20T07:36:02;100763.31;;;20.14;96.71
19600;BME280;9947;57.722;12.012;2022-08-20T07:38:30;100756.94;;;19.83;96.66
19600;BME280;9947;57.722;12.012;2022-08-20T07:41:00;100763.34;;;20.06;97.60
19600;BME280;9947;57.722;12.012;2022-08-20T07:43:29;100756.16;;;20.05;98.02
19600;BME280;9947;57.722;12.012;2022-08-20T07:45:57;100763.34;;;20.06;98.30
19600;BME280;9947;57.722;12.012;2022-08-20T07:48:27;100768.72;;;20.30;99.09
19600;BME280;9947;57.722;12.012;2022-08-20T07:50:55;100762.38;;;20.30;96.57
19600;BME280;9947;57.722;12.012;2022-08-20T07:53:24;100765.69;;;20.56;97.79
19600;BME280;9947;57.722;12.012;2022-08-20T07:55:51;100760.03;;;20.50;95.78
19600;BME280;9947;57.722;12.012;2022-08-20T07:58:19;100765.63;;;20.65;96.63
19600;BME280;9947;57.722;12.012;2022-08-20T08:00:48;100756.03;;;20.83;95.27
19600;BME280;9947;57.722;12.012;2022-08-20T08:03:15;100770.91;;;20.43;94.70
19600;BME280;9947;57.722;12.012;2022-08-20T08:05:44;100760.81;;;20.27;94.41
19600;BME280;9947;57.722;12.012;2022-08-20T08:08:15;100781.84;;;20.12;92.82
19600;BME280;9947;57.722;12.012;2022-08-20T08:10:46;100776.53;;;20.02;95.46
19600;BME280;9947;57.722;12.012;2022-08-20T08:13:14;100784.69;;;19.88;96.00
19600;BME280;9947;57.722;12.012;2022-08-20T08:15:45;100776.97;;;19.83;95.68
19600;BME280;9947;57.722;12.012;2022-08-20T08:18:16;100785.91;;;19.85;93.94
19600;BME280;9947;57.722;12.012;2022-08-20T08:20:47;100792.59;;;19.83;93.07
19600;BME280;9947;57.722;12.012;2022-08-20T08:23:17;100793.13;;;19.78;93.74
19600;BME280;9947;57.722;12.012;2022-08-20T08:25:45;100793.44;;;19.83;94.22
19600;BME280;9947;57.722;12.012;2022-08-20T08:28:13;100802.88;;;19.73;94.38
19600;BME280;9947;57.722;12.012;2022-08-20T08:30:40;100797.41;;;19.81;95.42
19600;BME280;9947;57.722;12.012;2022-08-20T08:33:17;100797.59;;;19.47;95.76
19600;BME280;9947;57.722;12.012;2022-08-20T08:35:58;100799.66;;;19.53;95.43
19600;BME280;9947;57.722;12.012;2022-08-20T08:38:26;100798.94;;;19.51;94.86
19600;BME280;9947;57.722;12.012;2022-08-20T08:40:57;100800.56;;;20.00;94.62
19600;BME280;9947;57.722;12.012;2022-08-20T08:43:29;100796.13;;;19.99;93.25
19600;BME280;9947;57.722;12.012;2022-08-20T08:45:59;100799.25;;;19.88;91.63
19600;BME280;9947;57.722;12.012;2022-08-20T08:48:32;100800.22;;;20.03;93.06
19600;BME280;9947;57.722;12.012;2022-08-20T08:51:05;100801.50;;;20.24;92.69
19600;BME280;9947;57.722;12.012;2022-08-20T08:53:39;100796.28;;;20.06;91.50
19600;BME280;9947;57.722;12.012;2022-08-20T08:56:09;100808.84;;;19.92;93.05
19600;BME280;9947;57.722;12.012;2022-08-20T08:58:36;100808.88;;;19.76;92.08
19600;BME280;9947;57.722;12.012;2022-08-20T09:01:08;100810.47;;;19.62;91.62
19600;BME280;9947;57.722;12.012;2022-08-20T09:03:37;100812.66;;;19.51;90.59
19600;BME280;9947;57.722;12.012;2022-08-20T09:06:12;100818.00;;;19.52;93.24
19600;BME280;9947;57.722;12.012;2022-08-20T09:08:43;100819.00;;;19.84;93.77
19600;BME280;9947;57.722;12.012;2022-08-20T09:11:15;100823.44;;;19.77;96.39
19600;BME280;9947;57.722;12.012;2022-08-20T09:13:44;100820.88;;;19.83;94.65
19600;BME280;9947;57.722;12.012;2022-08-20T09:16:12;100824.81;;;19.89;94.73
19600;BME280;9947;57.722;12.012;2022-08-20T09:18:39;100836.34;;;19.52;94.97
19600;BME280;9947;57.722;12.012;2022-08-20T09:21:06;100833.28;;;19.55;95.20
19600;BME280;9947;57.722;12.012;2022-08-20T09:23:34;100839.41;;;19.73;95.91
19600;BME280;9947;57.722;12.012;2022-08-20T09:26:01;100849.00;;;19.85;94.40
19600;BME280;9947;57.722;12.012;2022-08-20T09:28:30;100844.22;;;19.79;94.98
19600;BME280;9947;57.722;12.012;2022-08-20T09:30:56;100844.34;;;19.78;96.00
19600;BME280;9947;57.722;12.012;2022-08-20T09:33:23;100848.06;;;20.01;95.85
19600;BME280;9947;57.722;12.012;2022-08-20T09:35:50;100848.78;;;19.95;95.75
19600;BME280;9947;57.722;12.012;2022-08-20T09:38:19;100851.72;;;19.77;93.85
19600;BME280;9947;57.722;12.012;2022-08-20T09:40:46;100847.63;;;19.73;94.22
19600;BME280;9947;57.722;12.012;2022-08-20T09:43:13;100855.69;;;19.66;96.33
19600;BME280;9947;57.722;12.012;2022-08-20T09:45:41;100851.94;;;19.59;95.97
19600;BME280;9947;57.722;12.012;2022-08-20T09:48:08;100851.91;;;19.76;96.20
19600;BME280;9947;57.722;12.012;2022-08-20T09:50:35;100856.78;;;20.13;96.61
19600;BME280;9947;57.722;12.012;2022-08-20T09:53:04;100846.03;;;19.95;91.81
19600;BME280;9947;57.722;12.012;2022-08-20T09:55:32;100856.47;;;19.99;93.39
19600;BME280;9947;57.722;12.012;2022-08-20T09:58:03;100854.38;;;20.18;93.83
19600;BME280;9947;57.722;12.012;2022-08-20T10:00:34;100853.47;;;20.25;94.34
19600;BME280;9947;57.722;12.012;2022-08-20T10:03:07;100856.09;;;20.19;92.63
19600;BME280;9947;57.722;12.012;2022-08-20T10:05:34;100851.94;;;20.23;91.42
19600;BME280;9947;57.722;12.012;2022-08-20T10:08:04;100861.22;;;20.30;92.46
19600;BME280;9947;57.722;12.012;2022-08-20T10:10:31;100852.75;;;20.40;90.76
19600;BME280;9947;57.722;12.012;2022-08-20T10:12:57;100860.69;;;20.26;90.37
19600;BME280;9947;57.722;12.012;2022-08-20T10:15:27;100864.06;;;19.89;87.90
19600;BME280;9947;57.722;12.012;2022-08-20T10:17:53;100869.22;;;19.76;88.64
19600;BME280;9947;57.722;12.012;2022-08-20T10:20:24;100868.53;;;19.74;90.90
19600;BME280;9947;57.722;12.012;2022-08-20T10:22:51;100868.03;;;19.46;92.94
19600;BME280;9947;57.722;12.012;2022-08-20T10:25:18;100875.72;;;19.75;93.74
19600;BME280;9947;57.722;12.012;2022-08-20T10:27:44;100877.16;;;19.55;93.88
19600;BME280;9947;57.722;12.012;2022-08-20T10:30:11;100871.63;;;19.71;94.90
19600;BME280;9947;57.722;12.012;2022-08-20T10:32:38;100880.03;;;19.86;92.99
19600;BME280;9947;57.722;12.012;2022-08-20T10:35:10;100876.47;;;19.61;92.23
19600;BME280;9947;57.722;12.012;2022-08-20T10:37:41;100882.78;;;19.61;93.50
19600;BME280;9947;57.722;12.012;2022-08-20T10:40:09;100887.91;;;19.48;94.22
19600;BME280;9947;57.722;12.012;2022-08-20T10:42:36;100887.19;;;19.22;94.11
19600;BME280;9947;57.722;12.012;2022-08-20T10:45:03;100875.22;;;19.47;94.55
19600;BME280;9947;57.722;12.012;2022-08-20T10:47:31;100876.25;;;19.46;95.37
19600;BME280;9947;57.722;12.012;2022-08-20T10:50:02;100882.63;;;19.63;93.94
19600;BME280;9947;57.722;12.012;2022-08-20T10:52:29;100880.56;;;19.65;93.17
19600;BME280;9947;57.722;12.012;2022-08-20T10:54:57;100878.47;;;19.51;91.96
19600;BME280;9947;57.722;12.012;2022-08-20T10:57:26;100886.03;;;19.40;93.15
19600;BME280;9947;57.722;12.012;2022-08-20T10:59:55;100875.59;;;19.52;92.84
19600;BME280;9947;57.722;12.012;2022-08-20T11:02:24;100883.28;;;19.89;93.82
19600;BME280;9947;57.722;12.012;2022-08-20T11:04:52;100885.13;;;19.97;93.50
19600;BME280;9947;57.722;12.012;2022-08-20T11:07:24;100886.84;;;19.98;92.69
19600;BME280;9947;57.722;12.012;2022-08-20T11:09:52;100886.41;;;19.62;86.65
19600;BME280;9947;57.722;12.012;2022-08-20T11:12:21;100899.56;;;19.42;89.27
19600;BME280;9947;57.722;12.012;2022-08-20T11:14:51;100893.72;;;19.45;91.35
19600;BME280;9947;57.722;12.012;2022-08-20T11:17:19;100898.22;;;19.54;91.47
19600;BME280;9947;57.722;12.012;2022-08-20T11:19:47;100893.56;;;19.47;94.74
19600;BME280;9947;57.722;12.012;2022-08-20T11:22:14;100900.38;;;19.10;83.93
19600;BME280;9947;57.722;12.012;2022-08-20T11:24:41;100897.66;;;19.02;85.97
19600;BME280;9947;57.722;12.012;2022-08-20T11:27:08;100889.59;;;19.08;84.85
19600;BME280;9947;57.722;12.012;2022-08-20T11:29:37;100900.38;;;19.18;87.77
19600;BME280;9947;57.722;12.012;2022-08-20T11:32:04;100896.97;;;19.08;90.48
19600;BME280;9947;57.722;12.012;2022-08-20T11:34:31;100894.34;;;18.98;90.73
19600;BME280;9947;57.722;12.012;2022-08-20T11:36:58;100898.69;;;19.17;91.47
19600;BME280;9947;57.722;12.012;2022-08-20T11:39:25;100897.50;;;19.28;91.07
19600;BME280;9947;57.722;12.012;2022-08-20T11:41:55;100902.47;;;19.32;86.67
19600;BME280;9947;57.722;12.012;2022-08-20T11:44:22;100906.25;;;19.31;91.46
19600;BME280;9947;57.722;12.012;2022-08-20T11:46:50;100908.13;;;19.31;93.47
19600;BME280;9947;57.722;12.012;2022-08-20T11:49:17;100903.84;;;19.45;92.89
19600;BME280;9947;57.722;12.012;2022-08-20T11:51:43;100915.66;;;19.45;90.87
19600;BME280;9947;57.722;12.012;2022-08-20T11:54:10;100898.88;;;19.48;89.95
19600;BME280;9947;57.722;12.012;2022-08-20T11:56:37;100897.66;;;19.51;91.80
19600;BME280;9947;57.722;12.012;2022-08-20T11:59:04;100909.34;;;19.53;92.68
19600;BME280;9947;57.722;12.012;2022-08-20T12:01:31;100904.00;;;19.51;94.61
19600;BME280;9947;57.722;12.012;2022-08-20T12:03:59;100909.03;;;19.56;94.93
19600;BME280;9947;57.722;12.012;2022-08-20T12:06:25;100916.50;;;19.46;93.16
19600;BME280;9947;57.722;12.012;2022-08-20T12:08:53;100909.31;;;19.45;92.89
19600;BME280;9947;57.722;12.012;2022-08-20T12:11:19;100917.38;;;19.30;96.79
19600;BME280;9947;57.722;12.012;2022-08-20T12:13:46;100914.97;;;19.35;96.21
19600;BME280;9947;57.722;12.012;2022-08-20T12:16:13;100919.75;;;19.17;96.07
19600;BME280;9947;57.722;12.012;2022-08-20T12:18:40;100913.06;;;19.03;96.83
19600;BME280;9947;57.722;12.012;2022-08-20T12:21:08;100921.16;;;19.29;96.11
19600;BME280;9947;57.722;12.012;2022-08-20T12:23:35;100925.09;;;19.34;97.57
19600;BME280;9947;57.722;12.012;2022-08-20T12:26:02;100923.69;;;19.22;95.61
19600;BME280;9947;57.722;12.012;2022-08-20T12:28:29;100931.91;;;19.22;95.93
19600;BME280;9947;57.722;12.012;2022-08-20T12:30:56;100935.28;;;18.92;96.89
19600;BME280;9947;57.722;12.012;2022-08-20T12:33:23;100928.06;;;18.83;96.13
19600;BME280;9947;57.722;12.012;2022-08-20T12:35:50;100907.03;;;18.99;95.86
19600;BME280;9947;57.722;12.012;2022-08-20T12:38:18;100909.16;;;19.30;95.50
19600;BME280;9947;57.722;12.012;2022-08-20T12:40:45;100914.44;;;19.23;94.57
19600;BME280;9947;57.722;12.012;2022-08-20T12:43:12;100909.28;;;19.20;95.43
19600;BME280;9947;57.722;12.012;2022-08-20T12:45:39;100908.81;;;19.33;93.86
19600;BME280;9947;57.722;12.012;2022-08-20T12:48:07;100916.88;;;19.75;89.19
19600;BME280;9947;57.722;12.012;2022-08-20T12:50:36;100917.63;;;20.41;91.52
19600;BME280;9947;57.722;12.012;2022-08-20T12:53:03;100929.84;;;20.77;88.13
19600;BME280;9947;57.722;12.012;2022-08-20T12:55:31;100935.19;;;21.02;86.55
19600;BME280;9947;57.722;12.012;2022-08-20T12:58:00;100921.09;;;20.82;87.12